sensor_id;sensor_type;location;lat;lon;timestamp;P1;durP1;ratioP1;P2;durP2;ratioP2
11139;SDS011;5624;49.388;11.350;2024-01-06T00:00:30;10.63;;;7.53;;
11139;SDS011;5624;49.388;11.350;2024-01-06T00:02:55;10.40;;;8.03;;
11139;SDS011;5624;49.388;11.350;2024-01-06T00:05:21;11.57;;;7.77;;
11139;SDS011;5624;49.388;11.350;2024-01-06T00:07:46;10.50;;;7.33;;
11139;SDS011;5624;49.388;11.350;2024-01-06T00:10:12;9.97;;;7.47;;
11139;SDS011;5624;49.388;11.350;2024-01-06T00:12:37;11.77;;;8.10;;
11139;SDS011;5624;49.388;11.350;2024-01-06T00:15:03;15.43;;;9.90;;
11139;SDS011;5624;49.388;11.350;2024-01-06T00:17:29;13.17;;;10.73;;
11139;SDS011;5624;49.388;11.350;2024-01-06T00:19:55;13.87;;;10.07;;
11139;SDS011;5624;49.388;11.350;2024-01-06T00:22:20;11.43;;;9.83;;
11139;SDS011;5624;49.388;11.350;2024-01-06T00:24:46;11.47;;;8.70;;
11139;SDS011;5624;49.388;11.350;2024-01-06T00:27:11;11.17;;;8.77;;
11139;SDS011;5624;49.388;11.350;2024-01-06T00:29:38;12.50;;;8.80;;
11139;SDS011;5624;49.388;11.350;2024-01-06T00:32:04;10.43;;;8.63;;
11139;SDS011;5624;49.388;11.350;2024-01-06T00:34:30;11.33;;;8.93;;
11139;SDS011;5624;49.388;11.350;2024-01-06T00:36:55;11.93;;;8.60;;
11139;SDS011;5624;49.388;11.350;2024-01-06T00:39:21;12.37;;;8.40;;
11139;SDS011;5624;49.388;11.350;2024-01-06T00:41:46;10.97;;;8.77;;
11139;SDS011;5624;49.388;11.350;2024-01-06T00:44:12;14.40;;;10.50;;
11139;SDS011;5624;49.388;11.350;2024-01-06T00:46:38;10.37;;;8.87;;
11139;SDS011;5624;49.388;11.350;2024-01-06T00:49:04;10.23;;;8.30;;
11139;SDS011;5624;49.388;11.350;2024-01-06T00:51:30;10.07;;;7.80;;
11139;SDS011;5624;49.388;11.350;2024-01-06T00:53:55;10.97;;;8.10;;
11139;SDS011;5624;49.388;11.350;2024-01-06T00:56:21;8.83;;;7.47;;
11139;SDS011;5624;49.388;11.350;2024-01-06T00:58:47;9.50;;;7.23;;
11139;SDS011;5624;49.388;11.350;2024-01-06T01:01:13;10.00;;;7.53;;
11139;SDS011;5624;49.388;11.350;2024-01-06T01:03:38;9.37;;;7.40;;
11139;SDS011;5624;49.388;11.350;2024-01-06T01:06:04;7.97;;;6.93;;
11139;SDS011;5624;49.388;11.350;2024-01-06T01:08:29;8.67;;;6.83;;
11139;SDS011;5624;49.388;11.350;2024-01-06T01:10:55;11.57;;;7.77;;
11139;SDS011;5624;49.388;11.350;2024-01-06T01:13:22;7.40;;;6.70;;
11139;SDS011;5624;49.388;11.350;2024-01-06T01:15:47;9.37;;;7.13;;
11139;SDS011;5624;49.388;11.350;2024-01-06T01:18:13;12.03;;;7.43;;
11139;SDS011;5624;49.388;11.350;2024-01-06T01:20:39;9.30;;;7.70;;
11139;SDS011;5624;49.388;11.350;2024-01-06T01:23:06;10.23;;;7.70;;
11139;SDS011;5624;49.388;11.350;2024-01-06T01:25:32;8.73;;;7.27;;
11139;SDS011;5624;49.388;11.350;2024-01-06T01:27:58;9.77;;;7.73;;
11139;SDS011;5624;49.388;11.350;2024-01-06T01:30:23;9.60;;;7.90;;
11139;SDS011;5624;49.388;11.350;2024-01-06T01:32:49;10.97;;;8.07;;
11139;SDS011;5624;49.388;11.350;2024-01-06T01:35:15;11.20;;;7.90;;
11139;SDS011;5624;49.388;11.350;2024-01-06T01:37:40;9.30;;;7.37;;
11139;SDS011;5624;49.388;11.350;2024-01-06T01:40:06;12.60;;;7.77;;
11139;SDS011;5624;49.388;11.350;2024-01-06T01:42:32;9.07;;;7.73;;
11139;SDS011;5624;49.388;11.350;2024-01-06T01:44:58;11.47;;;8.43;;
11139;SDS011;5624;49.388;11.350;2024-01-06T01:47:23;10.10;;;7.83;;
11139;SDS011;5624;49.388;11.350;2024-01-06T01:49:49;9.57;;;7.63;;
11139;SDS011;5624;49.388;11.350;2024-01-06T01:52:15;8.37;;;7.50;;
11139;SDS011;5624;49.388;11.350;2024-01-06T01:54:41;10.37;;;7.70;;
11139;SDS011;5624;49.388;11.350;2024-01-06T01:57:08;9.33;;;7.87;;
11139;SDS011;5624;49.388;11.350;2024-01-06T01:59:35;9.47;;;7.80;;
11139;SDS011;5624;49.388;11.350;2024-01-06T02:02:02;9.83;;;7.77;;
11139;SDS011;5624;49.388;11.350;2024-01-06T02:04:27;8.93;;;7.80;;
11139;SDS011;5624;49.388;11.350;2024-01-06T02:06:53;9.77;;;8.20;;
11139;SDS011;5624;49.388;11.350;2024-01-06T02:09:19;8.63;;;7.80;;
11139;SDS011;5624;49.388;11.350;2024-01-06T02:11:44;9.30;;;8.10;;
11139;SDS011;5624;49.388;11.350;2024-01-06T02:14:10;9.40;;;7.97;;
11139;SDS011;5624;49.388;11.350;2024-01-06T02:16:35;9.30;;;8.00;;
11139;SDS011;5624;49.388;11.350;2024-01-06T02:19:01;10.47;;;8.50;;
11139;SDS011;5624;49.388;11.350;2024-01-06T02:21:27;11.70;;;8.10;;
11139;SDS011;5624;49.388;11.350;2024-01-06T02:23:56;8.53;;;7.53;;
11139;SDS011;5624;49.388;11.350;2024-01-06T02:26:21;9.53;;;8.07;;
11139;SDS011;5624;49.388;11.350;2024-01-06T02:28:47;8.70;;;7.70;;
11139;SDS011;5624;49.388;11.350;2024-01-06T02:31:14;11.50;;;8.17;;
11139;SDS011;5624;49.388;11.350;2024-01-06T02:33:39;11.77;;;8.80;;
11139;SDS011;5624;49.388;11.350;2024-01-06T02:36:05;13.30;;;10.33;;
11139;SDS011;5624;49.388;11.350;2024-01-06T02:38:31;11.07;;;9.57;;
11139;SDS011;5624;49.388;11.350;2024-01-06T02:40:56;13.43;;;10.73;;
11139;SDS011;5624;49.388;11.350;2024-01-06T02:43:22;11.83;;;10.37;;
11139;SDS011;5624;49.388;11.350;2024-01-06T02:45:48;13.07;;;10.43;;
11139;SDS011;5624;49.388;11.350;2024-01-06T02:48:14;10.67;;;9.13;;
11139;SDS011;5624;49.388;11.350;2024-01-06T02:50:39;10.30;;;9.17;;
11139;SDS011;5624;49.388;11.350;2024-01-06T02:53:05;11.63;;;9.73;;
11139;SDS011;5624;49.388;11.350;2024-01-06T02:55:30;9.80;;;8.37;;
11139;SDS011;5624;49.388;11.350;2024-01-06T02:57:56;9.10;;;8.07;;
11139;SDS011;5624;49.388;11.350;2024-01-06T03:00:21;9.10;;;8.13;;
11139;SDS011;5624;49.388;11.350;2024-01-06T03:02:47;8.57;;;7.60;;
11139;SDS011;5624;49.388;11.350;2024-01-06T03:05:12;9.23;;;8.17;;
11139;SDS011;5624;49.388;11.350;2024-01-06T03:07:38;8.90;;;7.97;;
11139;SDS011;5624;49.388;11.350;2024-01-06T03:10:03;11.60;;;8.97;;
11139;SDS011;5624;49.388;11.350;2024-01-06T03:12:29;9.07;;;8.17;;
11139;SDS011;5624;49.388;11.350;2024-01-06T03:14:55;11.40;;;8.63;;
11139;SDS011;5624;49.388;11.350;2024-01-06T03:17:20;11.17;;;8.60;;
11139;SDS011;5624;49.388;11.350;2024-01-06T03:19:46;11.23;;;8.80;;
11139;SDS011;5624;49.388;11.350;2024-01-06T03:22:11;9.73;;;8.30;;
11139;SDS011;5624;49.388;11.350;2024-01-06T03:24:37;10.23;;;9.13;;
11139;SDS011;5624;49.388;11.350;2024-01-06T03:27:02;11.30;;;8.70;;
11139;SDS011;5624;49.388;11.350;2024-01-06T03:29:28;11.83;;;9.30;;
11139;SDS011;5624;49.388;11.350;2024-01-06T03:31:53;10.03;;;8.80;;
11139;SDS011;5624;49.388;11.350;2024-01-06T03:34:19;10.47;;;8.33;;
11139;SDS011;5624;49.388;11.350;2024-01-06T03:36:44;10.67;;;9.20;;
11139;SDS011;5624;49.388;11.350;2024-01-06T03:39:10;9.27;;;8.33;;
11139;SDS011;5624;49.388;11.350;2024-01-06T03:41:35;10.00;;;8.50;;
11139;SDS011;5624;49.388;11.350;2024-01-06T03:44:01;11.70;;;8.63;;
11139;SDS011;5624;49.388;11.350;2024-01-06T03:46:27;9.40;;;8.50;;
11139;SDS011;5624;49.388;11.350;2024-01-06T03:48:52;10.33;;;8.57;;
11139;SDS011;5624;49.388;11.350;2024-01-06T03:51:18;10.53;;;8.73;;
11139;SDS011;5624;49.388;11.350;2024-01-06T03:53:43;10.63;;;9.20;;
11139;SDS011;5624;49.388;11.350;2024-01-06T03:56:09;10.63;;;8.53;;
11139;SDS011;5624;49.388;11.350;2024-01-06T03:58:34;9.10;;;8.13;;
11139;SDS011;5624;49.388;11.350;2024-01-06T04:01:00;9.97;;;7.80;;
11139;SDS011;5624;49.388;11.350;2024-01-06T04:03:25;10.30;;;7.83;;
11139;SDS011;5624;49.388;11.350;2024-01-06T04:05:51;9.10;;;8.20;;
11139;SDS011;5624;49.388;11.350;2024-01-06T04:08:17;11.33;;;8.43;;
11139;SDS011;5624;49.388;11.350;2024-01-06T04:10:44;9.40;;;8.33;;
11139;SDS011;5624;49.388;11.350;2024-01-06T04:13:12;10.03;;;7.90;;
11139;SDS011;5624;49.388;11.350;2024-01-06T04:15:38;10.07;;;8.17;;
11139;SDS011;5624;49.388;11.350;2024-01-06T04:18:04;11.67;;;8.93;;
11139;SDS011;5624;49.388;11.350;2024-01-06T04:20:32;11.27;;;8.63;;
11139;SDS011;5624;49.388;11.350;2024-01-06T04:22:58;9.33;;;8.23;;
11139;SDS011;5624;49.388;11.350;2024-01-06T04:25:24;9.23;;;7.93;;
11139;SDS011;5624;49.388;11.350;2024-01-06T04:27:50;10.13;;;8.80;;
11139;SDS011;5624;49.388;11.350;2024-01-06T04:30:16;9.07;;;8.20;;
11139;SDS011;5624;49.388;11.350;2024-01-06T04:32:42;10.33;;;8.70;;
11139;SDS011;5624;49.388;11.350;2024-01-06T04:35:07;10.43;;;8.97;;
11139;SDS011;5624;49.388;11.350;2024-01-06T04:37:33;9.70;;;8.70;;
11139;SDS011;5624;49.388;11.350;2024-01-06T04:39:59;9.07;;;8.17;;
11139;SDS011;5624;49.388;11.350;2024-01-06T04:42:24;10.53;;;8.50;;
11139;SDS011;5624;49.388;11.350;2024-01-06T04:44:50;11.13;;;8.93;;
11139;SDS011;5624;49.388;11.350;2024-01-06T04:47:16;9.50;;;8.20;;
11139;SDS011;5624;49.388;11.350;2024-01-06T04:49:42;9.47;;;8.07;;
11139;SDS011;5624;49.388;11.350;2024-01-06T04:52:09;9.27;;;8.23;;
11139;SDS011;5624;49.388;11.350;2024-01-06T04:54:34;9.93;;;8.30;;
11139;SDS011;5624;49.388;11.350;2024-01-06T04:57:00;12.33;;;8.47;;
11139;SDS011;5624;49.388;11.350;2024-01-06T04:59:25;9.70;;;8.57;;
11139;SDS011;5624;49.388;11.350;2024-01-06T05:01:51;10.87;;;7.87;;
11139;SDS011;5624;49.388;11.350;2024-01-06T05:04:18;9.60;;;8.03;;
11139;SDS011;5624;49.388;11.350;2024-01-06T05:06:43;9.70;;;7.60;;
11139;SDS011;5624;49.388;11.350;2024-01-06T05:09:09;8.63;;;7.67;;
11139;SDS011;5624;49.388;11.350;2024-01-06T05:11:34;9.73;;;7.57;;
11139;SDS011;5624;49.388;11.350;2024-01-06T05:14:00;10.23;;;8.00;;
11139;SDS011;5624;49.388;11.350;2024-01-06T05:16:25;12.93;;;8.20;;
11139;SDS011;5624;49.388;11.350;2024-01-06T05:18:52;11.37;;;8.60;;
11139;SDS011;5624;49.388;11.350;2024-01-06T05:21:18;9.00;;;8.10;;
11139;SDS011;5624;49.388;11.350;2024-01-06T05:23:43;9.07;;;7.60;;
11139;SDS011;5624;49.388;11.350;2024-01-06T05:26:09;11.80;;;7.90;;
11139;SDS011;5624;49.388;11.350;2024-01-06T05:28:35;10.83;;;8.17;;
11139;SDS011;5624;49.388;11.350;2024-01-06T05:31:00;10.80;;;9.00;;
11139;SDS011;5624;49.388;11.350;2024-01-06T05:33:26;12.20;;;10.47;;
11139;SDS011;5624;49.388;11.350;2024-01-06T05:35:51;12.60;;;9.70;;
11139;SDS011;5624;49.388;11.350;2024-01-06T05:38:17;12.93;;;10.70;;
11139;SDS011;5624;49.388;11.350;2024-01-06T05:40:42;11.77;;;9.97;;
11139;SDS011;5624;49.388;11.350;2024-01-06T05:43:08;12.37;;;10.67;;
11139;SDS011;5624;49.388;11.350;2024-01-06T05:45:34;13.40;;;10.20;;
11139;SDS011;5624;49.388;11.350;2024-01-06T05:47:59;12.00;;;10.47;;
11139;SDS011;5624;49.388;11.350;2024-01-06T05:50:25;12.10;;;10.03;;
11139;SDS011;5624;49.388;11.350;2024-01-06T05:52:50;13.50;;;10.50;;
11139;SDS011;5624;49.388;11.350;2024-01-06T05:55:17;12.77;;;10.40;;
11139;SDS011;5624;49.388;11.350;2024-01-06T05:57:42;12.23;;;10.40;;
11139;SDS011;5624;49.388;11.350;2024-01-06T06:00:08;13.47;;;10.43;;
11139;SDS011;5624;49.388;11.350;2024-01-06T06:02:35;11.33;;;10.23;;
11139;SDS011;5624;49.388;11.350;2024-01-06T06:05:00;12.13;;;10.27;;
11139;SDS011;5624;49.388;11.350;2024-01-06T06:07:26;12.97;;;10.30;;
11139;SDS011;5624;49.388;11.350;2024-01-06T06:09:51;10.13;;;9.13;;
11139;SDS011;5624;49.388;11.350;2024-01-06T06:12:18;11.17;;;9.37;;
11139;SDS011;5624;49.388;11.350;2024-01-06T06:14:43;9.37;;;8.13;;
11139;SDS011;5624;49.388;11.350;2024-01-06T06:17:09;9.97;;;8.70;;
11139;SDS011;5624;49.388;11.350;2024-01-06T06:19:34;10.03;;;9.00;;
11139;SDS011;5624;49.388;11.350;2024-01-06T06:22:00;9.83;;;8.20;;
11139;SDS011;5624;49.388;11.350;2024-01-06T06:24:25;9.57;;;7.93;;
11139;SDS011;5624;49.388;11.350;2024-01-06T06:26:51;9.67;;;7.53;;
11139;SDS011;5624;49.388;11.350;2024-01-06T06:29:16;7.83;;;7.13;;
11139;SDS011;5624;49.388;11.350;2024-01-06T06:31:42;8.20;;;6.97;;
11139;SDS011;5624;49.388;11.350;2024-01-06T06:34:11;9.13;;;7.43;;
11139;SDS011;5624;49.388;11.350;2024-01-06T06:36:37;9.27;;;6.97;;
11139;SDS011;5624;49.388;11.350;2024-01-06T06:39:03;9.07;;;7.47;;
11139;SDS011;5624;49.388;11.350;2024-01-06T06:41:29;9.70;;;7.87;;
11139;SDS011;5624;49.388;11.350;2024-01-06T06:43:55;10.27;;;7.43;;
11139;SDS011;5624;49.388;11.350;2024-01-06T06:46:22;9.80;;;8.03;;
11139;SDS011;5624;49.388;11.350;2024-01-06T06:48:48;9.50;;;7.97;;
11139;SDS011;5624;49.388;11.350;2024-01-06T06:51:15;11.47;;;9.70;;
11139;SDS011;5624;49.388;11.350;2024-01-06T06:53:41;10.80;;;9.70;;
11139;SDS011;5624;49.388;11.350;2024-01-06T06:56:06;11.17;;;9.10;;
11139;SDS011;5624;49.388;11.350;2024-01-06T06:58:32;9.77;;;8.50;;
11139;SDS011;5624;49.388;11.350;2024-01-06T07:00:58;8.83;;;7.93;;
11139;SDS011;5624;49.388;11.350;2024-01-06T07:03:23;9.60;;;7.97;;
11139;SDS011;5624;49.388;11.350;2024-01-06T07:05:49;10.63;;;8.67;;
11139;SDS011;5624;49.388;11.350;2024-01-06T07:08:15;9.77;;;7.87;;
11139;SDS011;5624;49.388;11.350;2024-01-06T07:10:40;9.73;;;8.37;;
11139;SDS011;5624;49.388;11.350;2024-01-06T07:13:06;11.00;;;9.90;;
11139;SDS011;5624;49.388;11.350;2024-01-06T07:15:32;16.63;;;14.63;;
11139;SDS011;5624;49.388;11.350;2024-01-06T07:17:57;16.23;;;12.57;;
11139;SDS011;5624;49.388;11.350;2024-01-06T07:20:23;13.47;;;11.30;;
11139;SDS011;5624;49.388;11.350;2024-01-06T07:22:48;14.10;;;11.20;;
11139;SDS011;5624;49.388;11.350;2024-01-06T07:25:14;13.53;;;11.20;;
11139;SDS011;5624;49.388;11.350;2024-01-06T07:27:39;13.60;;;11.67;;
11139;SDS011;5624;49.388;11.350;2024-01-06T07:30:05;12.70;;;11.40;;
11139;SDS011;5624;49.388;11.350;2024-01-06T07:32:33;13.83;;;12.33;;
11139;SDS011;5624;49.388;11.350;2024-01-06T07:34:59;14.70;;;12.63;;
11139;SDS011;5624;49.388;11.350;2024-01-06T07:37:25;14.10;;;12.07;;
11139;SDS011;5624;49.388;11.350;2024-01-06T07:39:50;17.00;;;12.27;;
11139;SDS011;5624;49.388;11.350;2024-01-06T07:42:16;12.87;;;11.47;;
11139;SDS011;5624;49.388;11.350;2024-01-06T07:44:42;12.47;;;11.13;;
11139;SDS011;5624;49.388;11.350;2024-01-06T07:47:07;12.63;;;11.03;;
11139;SDS011;5624;49.388;11.350;2024-01-06T07:49:33;12.87;;;10.23;;
11139;SDS011;5624;49.388;11.350;2024-01-06T07:51:58;12.10;;;10.90;;
11139;SDS011;5624;49.388;11.350;2024-01-06T07:54:24;12.20;;;9.90;;
11139;SDS011;5624;49.388;11.350;2024-01-06T07:56:50;11.27;;;10.17;;
11139;SDS011;5624;49.388;11.350;2024-01-06T07:59:16;12.07;;;10.13;;
11139;SDS011;5624;49.388;11.350;2024-01-06T08:01:41;13.10;;;10.40;;
11139;SDS011;5624;49.388;11.350;2024-01-06T08:04:08;11.77;;;9.20;;
11139;SDS011;5624;49.388;11.350;2024-01-06T08:06:34;11.67;;;9.33;;
11139;SDS011;5624;49.388;11.350;2024-01-06T08:08:59;12.00;;;8.87;;
11139;SDS011;5624;49.388;11.350;2024-01-06T08:11:25;9.67;;;8.67;;
11139;SDS011;5624;49.388;11.350;2024-01-06T08:13:50;9.33;;;8.30;;
11139;SDS011;5624;49.388;11.350;2024-01-06T08:16:16;10.00;;;8.67;;
11139;SDS011;5624;49.388;11.350;2024-01-06T08:18:42;11.87;;;8.80;;
11139;SDS011;5624;49.388;11.350;2024-01-06T08:21:07;10.03;;;9.03;;
11139;SDS011;5624;49.388;11.350;2024-01-06T08:23:33;9.07;;;8.10;;
11139;SDS011;5624;49.388;11.350;2024-01-06T08:25:58;10.27;;;9.03;;
11139;SDS011;5624;49.388;11.350;2024-01-06T08:28:24;11.47;;;9.47;;
11139;SDS011;5624;49.388;11.350;2024-01-06T08:30:49;10.47;;;8.77;;
11139;SDS011;5624;49.388;11.350;2024-01-06T08:33:15;10.83;;;8.33;;
11139;SDS011;5624;49.388;11.350;2024-01-06T08:35:42;9.40;;;8.47;;
11139;SDS011;5624;49.388;11.350;2024-01-06T08:38:08;9.43;;;8.27;;
11139;SDS011;5624;49.388;11.350;2024-01-06T08:40:34;9.00;;;8.07;;
11139;SDS011;5624;49.388;11.350;2024-01-06T08:43:00;12.33;;;8.23;;
11139;SDS011;5624;49.388;11.350;2024-01-06T08:45:26;9.87;;;8.00;;
11139;SDS011;5624;49.388;11.350;2024-01-06T08:47:52;11.97;;;8.17;;
11139;SDS011;5624;49.388;11.350;2024-01-06T08:50:18;8.03;;;7.27;;
11139;SDS011;5624;49.388;11.350;2024-01-06T08:52:43;9.37;;;7.53;;
11139;SDS011;5624;49.388;11.350;2024-01-06T08:55:09;9.87;;;8.27;;
11139;SDS011;5624;49.388;11.350;2024-01-06T08:57:35;10.47;;;7.27;;
11139;SDS011;5624;49.388;11.350;2024-01-06T09:00:00;9.73;;;7.30;;
11139;SDS011;5624;49.388;11.350;2024-01-06T09:02:26;8.00;;;7.20;;
11139;SDS011;5624;49.388;11.350;2024-01-06T09:04:51;8.47;;;7.30;;
11139;SDS011;5624;49.388;11.350;2024-01-06T09:07:17;11.27;;;7.17;;
11139;SDS011;5624;49.388;11.350;2024-01-06T09:09:43;8.90;;;7.17;;
11139;SDS011;5624;49.388;11.350;2024-01-06T09:12:09;9.20;;;7.20;;
11139;SDS011;5624;49.388;11.350;2024-01-06T09:14:34;13.07;;;7.93;;
11139;SDS011;5624;49.388;11.350;2024-01-06T09:17:00;10.50;;;7.60;;
11139;SDS011;5624;49.388;11.350;2024-01-06T09:19:26;10.00;;;7.13;;
11139;SDS011;5624;49.388;11.350;2024-01-06T09:21:53;8.93;;;6.97;;
11139;SDS011;5624;49.388;11.350;2024-01-06T09:24:19;10.60;;;7.63;;
11139;SDS011;5624;49.388;11.350;2024-01-06T09:26:45;9.87;;;7.17;;
11139;SDS011;5624;49.388;11.350;2024-01-06T09:29:11;11.93;;;7.10;;
11139;SDS011;5624;49.388;11.350;2024-01-06T09:31:36;10.40;;;7.00;;
11139;SDS011;5624;49.388;11.350;2024-01-06T09:34:02;11.67;;;7.67;;
11139;SDS011;5624;49.388;11.350;2024-01-06T09:36:29;9.57;;;7.37;;
11139;SDS011;5624;49.388;11.350;2024-01-06T09:38:55;9.13;;;8.23;;
11139;SDS011;5624;49.388;11.350;2024-01-06T09:41:21;11.17;;;7.87;;
11139;SDS011;5624;49.388;11.350;2024-01-06T09:43:47;10.13;;;8.07;;
11139;SDS011;5624;49.388;11.350;2024-01-06T09:46:25;10.77;;;7.77;;
11139;SDS011;5624;49.388;11.350;2024-01-06T09:48:54;12.80;;;8.63;;
11139;SDS011;5624;49.388;11.350;2024-01-06T09:51:20;10.70;;;7.73;;
11139;SDS011;5624;49.388;11.350;2024-01-06T09:53:53;9.87;;;7.47;;
11139;SDS011;5624;49.388;11.350;2024-01-06T09:56:26;11.40;;;8.47;;
11139;SDS011;5624;49.388;11.350;2024-01-06T09:58:53;9.77;;;8.50;;
11139;SDS011;5624;49.388;11.350;2024-01-06T10:01:18;10.17;;;8.33;;
11139;SDS011;5624;49.388;11.350;2024-01-06T10:03:44;11.67;;;8.53;;
11139;SDS011;5624;49.388;11.350;2024-01-06T10:06:13;9.90;;;8.50;;
11139;SDS011;5624;49.388;11.350;2024-01-06T10:08:42;10.77;;;9.00;;
11139;SDS011;5624;49.388;11.350;2024-01-06T10:11:08;13.47;;;9.17;;
11139;SDS011;5624;49.388;11.350;2024-01-06T10:13:34;11.00;;;9.00;;
11139;SDS011;5624;49.388;11.350;2024-01-06T10:16:00;10.60;;;9.00;;
11139;SDS011;5624;49.388;11.350;2024-01-06T10:18:26;10.90;;;8.33;;
11139;SDS011;5624;49.388;11.350;2024-01-06T10:20:54;11.23;;;8.67;;
11139;SDS011;5624;49.388;11.350;2024-01-06T10:23:24;10.60;;;8.40;;
11139;SDS011;5624;49.388;11.350;2024-01-06T10:25:55;10.70;;;8.57;;
11139;SDS011;5624;49.388;11.350;2024-01-06T10:28:21;11.27;;;7.97;;
11139;SDS011;5624;49.388;11.350;2024-01-06T10:30:52;10.47;;;7.77;;
11139;SDS011;5624;49.388;11.350;2024-01-06T10:33:19;9.37;;;8.37;;
11139;SDS011;5624;49.388;11.350;2024-01-06T10:35:49;12.63;;;8.73;;
11139;SDS011;5624;49.388;11.350;2024-01-06T10:38:14;11.13;;;7.90;;
11139;SDS011;5624;49.388;11.350;2024-01-06T10:40:55;10.60;;;6.93;;
11139;SDS011;5624;49.388;11.350;2024-01-06T10:43:21;10.03;;;7.73;;
11139;SDS011;5624;49.388;11.350;2024-01-06T10:45:50;11.60;;;8.03;;
11139;SDS011;5624;49.388;11.350;2024-01-06T10:48:16;11.43;;;8.17;;
11139;SDS011;5624;49.388;11.350;2024-01-06T10:50:43;10.63;;;8.03;;
11139;SDS011;5624;49.388;11.350;2024-01-06T10:53:10;9.57;;;8.43;;
11139;SDS011;5624;49.388;11.350;2024-01-06T10:55:38;12.47;;;7.93;;
11139;SDS011;5624;49.388;11.350;2024-01-06T10:58:05;9.33;;;7.47;;
11139;SDS011;5624;49.388;11.350;2024-01-06T11:00:32;10.47;;;8.47;;
11139;SDS011;5624;49.388;11.350;2024-01-06T11:02:58;11.07;;;8.53;;
11139;SDS011;5624;49.388;11.350;2024-01-06T11:05:24;12.97;;;8.00;;
11139;SDS011;5624;49.388;11.350;2024-01-06T11:07:50;9.00;;;8.10;;
11139;SDS011;5624;49.388;11.350;2024-01-06T11:10:20;8.67;;;7.60;;
11139;SDS011;5624;49.388;11.350;2024-01-06T11:13:05;9.73;;;8.27;;
11139;SDS011;5624;49.388;11.350;2024-01-06T11:15:38;11.60;;;8.37;;
11139;SDS011;5624;49.388;11.350;2024-01-06T11:18:08;11.17;;;8.67;;
11139;SDS011;5624;49.388;11.350;2024-01-06T11:20:34;10.20;;;9.10;;
11139;SDS011;5624;49.388;11.350;2024-01-06T11:23:18;11.20;;;8.70;;
11139;SDS011;5624;49.388;11.350;2024-01-06T11:25:45;9.93;;;8.97;;
11139;SDS011;5624;49.388;11.350;2024-01-06T11:28:11;10.57;;;8.57;;
11139;SDS011;5624;49.388;11.350;2024-01-06T11:30:37;12.53;;;8.57;;
11139;SDS011;5624;49.388;11.350;2024-01-06T11:33:04;12.90;;;8.83;;
11139;SDS011;5624;49.388;11.350;2024-01-06T11:35:30;10.30;;;8.40;;
11139;SDS011;5624;49.388;11.350;2024-01-06T11:38:06;9.30;;;8.30;;
11139;SDS011;5624;49.388;11.350;2024-01-06T11:40:36;11.43;;;7.83;;
11139;SDS011;5624;49.388;11.350;2024-01-06T11:45:41;9.17;;;7.83;;
11139;SDS011;5624;49.388;11.350;2024-01-06T11:48:08;8.30;;;6.90;;
11139;SDS011;5624;49.388;11.350;2024-01-06T11:50:37;9.70;;;6.97;;
11139;SDS011;5624;49.388;11.350;2024-01-06T11:53:04;8.07;;;7.27;;
11139;SDS011;5624;49.388;11.350;2024-01-06T11:55:32;8.77;;;7.10;;
11139;SDS011;5624;49.388;11.350;2024-01-06T11:57:59;10.20;;;6.83;;
11139;SDS011;5624;49.388;11.350;2024-01-06T12:00:28;11.23;;;7.50;;
11139;SDS011;5624;49.388;11.350;2024-01-06T12:03:00;10.13;;;7.17;;
11139;SDS011;5624;49.388;11.350;2024-01-06T12:05:27;7.80;;;6.83;;
11139;SDS011;5624;49.388;11.350;2024-01-06T12:07:56;9.70;;;6.73;;
11139;SDS011;5624;49.388;11.350;2024-01-06T12:10:24;8.47;;;6.07;;
11139;SDS011;5624;49.388;11.350;2024-01-06T12:12:57;9.23;;;6.57;;
11139;SDS011;5624;49.388;11.350;2024-01-06T12:15:30;8.53;;;6.83;;
11139;SDS011;5624;49.388;11.350;2024-01-06T12:17:57;8.47;;;6.70;;
11139;SDS011;5624;49.388;11.350;2024-01-06T12:20:24;9.13;;;6.73;;
11139;SDS011;5624;49.388;11.350;2024-01-06T12:22:51;9.23;;;6.70;;
11139;SDS011;5624;49.388;11.350;2024-01-06T12:25:17;9.77;;;7.80;;
11139;SDS011;5624;49.388;11.350;2024-01-06T12:27:43;8.23;;;6.87;;
11139;SDS011;5624;49.388;11.350;2024-01-06T12:30:13;8.03;;;5.77;;
11139;SDS011;5624;49.388;11.350;2024-01-06T12:32:43;9.70;;;6.03;;
11139;SDS011;5624;49.388;11.350;2024-01-06T12:35:10;7.00;;;5.20;;
11139;SDS011;5624;49.388;11.350;2024-01-06T12:37:37;8.90;;;5.77;;
11139;SDS011;5624;49.388;11.350;2024-01-06T12:40:03;9.17;;;7.20;;
11139;SDS011;5624;49.388;11.350;2024-01-06T12:42:28;8.93;;;5.87;;
11139;SDS011;5624;49.388;11.350;2024-01-06T12:44:54;8.07;;;5.00;;
11139;SDS011;5624;49.388;11.350;2024-01-06T12:47:19;8.93;;;6.20;;
11139;SDS011;5624;49.388;11.350;2024-01-06T12:49:45;7.73;;;5.80;;
11139;SDS011;5624;49.388;11.350;2024-01-06T12:52:11;8.90;;;6.57;;
11139;SDS011;5624;49.388;11.350;2024-01-06T12:54:37;5.73;;;5.00;;
11139;SDS011;5624;49.388;11.350;2024-01-06T12:57:02;8.20;;;5.93;;
11139;SDS011;5624;49.388;11.350;2024-01-06T12:59:28;8.37;;;5.30;;
11139;SDS011;5624;49.388;11.350;2024-01-06T13:01:55;6.47;;;5.00;;
11139;SDS011;5624;49.388;11.350;2024-01-06T13:04:21;10.30;;;6.53;;
11139;SDS011;5624;49.388;11.350;2024-01-06T13:06:46;9.13;;;5.97;;
11139;SDS011;5624;49.388;11.350;2024-01-06T13:09:13;7.87;;;6.33;;
11139;SDS011;5624;49.388;11.350;2024-01-06T13:11:41;10.13;;;6.27;;
11139;SDS011;5624;49.388;11.350;2024-01-06T13:14:07;7.93;;;6.03;;
11139;SDS011;5624;49.388;11.350;2024-01-06T13:16:33;8.33;;;6.47;;
11139;SDS011;5624;49.388;11.350;2024-01-06T13:18:59;10.63;;;5.80;;
11139;SDS011;5624;49.388;11.350;2024-01-06T13:21:25;8.37;;;5.23;;
11139;SDS011;5624;49.388;11.350;2024-01-06T13:23:53;10.70;;;6.73;;
11139;SDS011;5624;49.388;11.350;2024-01-06T13:26:19;6.97;;;5.30;;
11139;SDS011;5624;49.388;11.350;2024-01-06T13:28:44;7.20;;;6.03;;
11139;SDS011;5624;49.388;11.350;2024-01-06T13:31:11;7.67;;;5.93;;
11139;SDS011;5624;49.388;11.350;2024-01-06T13:33:36;9.27;;;5.80;;
11139;SDS011;5624;49.388;11.350;2024-01-06T13:36:02;8.17;;;5.43;;
11139;SDS011;5624;49.388;11.350;2024-01-06T13:38:29;7.50;;;6.20;;
11139;SDS011;5624;49.388;11.350;2024-01-06T13:40:54;7.23;;;4.83;;
11139;SDS011;5624;49.388;11.350;2024-01-06T13:43:20;6.30;;;5.07;;
11139;SDS011;5624;49.388;11.350;2024-01-06T13:45:45;7.33;;;5.87;;
11139;SDS011;5624;49.388;11.350;2024-01-06T13:48:12;5.93;;;5.17;;
11139;SDS011;5624;49.388;11.350;2024-01-06T13:50:38;9.53;;;6.20;;
11139;SDS011;5624;49.388;11.350;2024-01-06T13:53:04;8.40;;;5.20;;
11139;SDS011;5624;49.388;11.350;2024-01-06T13:55:31;5.43;;;4.50;;
11139;SDS011;5624;49.388;11.350;2024-01-06T13:57:58;6.17;;;4.60;;
11139;SDS011;5624;49.388;11.350;2024-01-06T14:00:24;6.33;;;4.73;;
11139;SDS011;5624;49.388;11.350;2024-01-06T14:02:51;8.07;;;5.07;;
11139;SDS011;5624;49.388;11.350;2024-01-06T14:05:16;5.70;;;4.57;;
11139;SDS011;5624;49.388;11.350;2024-01-06T14:07:44;5.73;;;4.50;;
11139;SDS011;5624;49.388;11.350;2024-01-06T14:10:11;8.97;;;5.07;;
11139;SDS011;5624;49.388;11.350;2024-01-06T14:12:39;6.50;;;4.77;;
11139;SDS011;5624;49.388;11.350;2024-01-06T14:15:05;6.43;;;4.47;;
11139;SDS011;5624;49.388;11.350;2024-01-06T14:17:32;6.20;;;4.60;;
11139;SDS011;5624;49.388;11.350;2024-01-06T14:19:58;7.63;;;4.67;;
11139;SDS011;5624;49.388;11.350;2024-01-06T14:22:23;8.40;;;4.30;;
11139;SDS011;5624;49.388;11.350;2024-01-06T14:24:49;7.53;;;5.30;;
11139;SDS011;5624;49.388;11.350;2024-01-06T14:27:15;7.57;;;5.37;;
11139;SDS011;5624;49.388;11.350;2024-01-06T14:29:41;8.30;;;6.03;;
11139;SDS011;5624;49.388;11.350;2024-01-06T14:32:07;6.87;;;5.07;;
11139;SDS011;5624;49.388;11.350;2024-01-06T14:34:32;5.07;;;4.57;;